createdAt,value
2017-09-14T00:01:48.849Z,15.46
2017-09-14T00:04:15.089Z,15.36
2017-09-14T00:06:41.294Z,15.28
2017-09-14T00:09:07.521Z,15.27
2017-09-14T00:11:33.774Z,15.28
2017-09-14T00:13:59.996Z,15.28
2017-09-14T00:16:26.218Z,15.24
2017-09-14T00:18:52.461Z,15.21
2017-09-14T00:21:18.680Z,15.22
2017-09-14T00:23:44.917Z,15.12
2017-09-14T00:26:11.144Z,15.12
2017-09-14T00:28:37.368Z,15.02
2017-09-14T00:31:03.596Z,15.00
2017-09-14T00:33:29.832Z,15.08
2017-09-14T00:35:56.096Z,15.35
2017-09-14T00:38:22.298Z,15.49
2017-09-14T00:40:48.528Z,15.35
2017-09-14T00:43:14.748Z,15.18
2017-09-14T00:45:40.970Z,15.08
2017-09-14T00:48:07.211Z,15.00
2017-09-14T00:50:33.447Z,14.89
2017-09-14T00:52:59.671Z,14.81
2017-09-14T00:55:25.916Z,14.82
2017-09-14T00:57:52.128Z,14.83
2017-09-14T01:00:18.288Z,14.78
2017-09-14T01:02:44.497Z,14.72
2017-09-14T01:05:10.708Z,14.82
2017-09-14T01:07:36.944Z,14.83
2017-09-14T01:10:03.155Z,14.83
2017-09-14T01:12:29.401Z,14.79
2017-09-14T01:14:55.674Z,14.69
2017-09-14T01:17:21.844Z,14.64
2017-09-14T01:19:48.100Z,14.62
2017-09-14T01:22:14.312Z,14.51
2017-09-14T01:24:40.550Z,14.56
2017-09-14T01:27:06.779Z,14.48
2017-09-14T01:29:33.019Z,14.44
2017-09-14T01:31:59.255Z,14.56
2017-09-14T01:34:25.487Z,14.62
2017-09-14T01:36:51.694Z,14.63
2017-09-14T01:39:17.939Z,14.76
2017-09-14T01:41:44.146Z,14.59
2017-09-14T01:44:10.400Z,14.37
2017-09-14T01:46:36.602Z,14.32
2017-09-14T01:49:02.866Z,14.28
2017-09-14T01:51:29.078Z,14.29
2017-09-14T01:53:55.310Z,14.29
2017-09-14T01:56:21.526Z,14.23
2017-09-14T01:58:47.764Z,14.26
2017-09-14T02:01:14.001Z,14.30
2017-09-14T02:03:40.296Z,14.27
2017-09-14T02:06:06.550Z,14.20
2017-09-14T02:08:32.785Z,14.16
2017-09-14T02:10:59.024Z,14.11
2017-09-14T02:13:25.246Z,14.04
2017-09-14T02:15:51.486Z,14.03
2017-09-14T02:18:17.690Z,13.97
2017-09-14T02:20:43.933Z,13.89
2017-09-14T02:23:10.178Z,13.87
2017-09-14T02:25:36.381Z,13.92
2017-09-14T02:28:02.646Z,13.88
2017-09-14T02:30:28.877Z,13.86
2017-09-14T02:32:55.094Z,13.74
2017-09-14T02:35:21.325Z,13.73
2017-09-14T02:37:47.538Z,13.75
2017-09-14T02:40:13.781Z,13.83
2017-09-14T02:42:40.010Z,13.83
2017-09-14T02:45:06.227Z,13.88
2017-09-14T02:47:32.466Z,13.89
2017-09-14T02:49:58.677Z,13.90
2017-09-14T02:52:24.941Z,13.86
2017-09-14T02:54:51.163Z,13.83
2017-09-14T02:57:17.381Z,13.74
2017-09-14T02:59:43.611Z,13.69
2017-09-14T03:02:09.846Z,13.77
2017-09-14T03:04:36.066Z,13.80
2017-09-14T03:07:02.306Z,13.76
2017-09-14T03:09:28.538Z,13.63
2017-09-14T03:11:54.766Z,13.55
2017-09-14T03:14:20.999Z,13.40
2017-09-14T03:16:47.209Z,13.36
2017-09-14T03:19:13.455Z,13.33
2017-09-14T03:21:39.678Z,13.26
2017-09-14T03:24:05.917Z,13.19
2017-09-14T03:26:32.146Z,13.14
2017-09-14T03:28:58.372Z,13.04
2017-09-14T03:31:24.619Z,13.09
2017-09-14T03:33:50.848Z,13.10
2017-09-14T03:36:17.059Z,13.12
2017-09-14T03:38:43.281Z,13.22
2017-09-14T03:41:09.526Z,13.25
2017-09-14T03:43:35.741Z,13.52
2017-09-14T03:46:01.982Z,13.69
2017-09-14T03:48:28.203Z,13.65
2017-09-14T03:50:54.440Z,13.57
2017-09-14T03:53:20.675Z,13.52
2017-09-14T03:55:46.902Z,13.44
2017-09-14T03:58:13.141Z,13.49
2017-09-14T04:00:39.361Z,13.69
2017-09-14T04:03:05.613Z,13.89
2017-09-14T04:05:31.818Z,14.15
2017-09-14T04:07:58.677Z,14.21
2017-09-14T04:10:24.895Z,14.24
2017-09-14T04:12:51.126Z,14.28
2017-09-14T04:15:17.349Z,14.13
2017-09-14T04:17:43.575Z,13.80
2017-09-14T04:20:09.825Z,13.59
2017-09-14T04:22:36.053Z,13.50
2017-09-14T04:25:02.270Z,13.47
2017-09-14T04:27:28.508Z,13.50
2017-09-14T04:29:54.749Z,13.50
2017-09-14T04:32:20.958Z,13.48
2017-09-14T04:34:47.178Z,13.60
2017-09-14T04:37:13.411Z,13.92
2017-09-14T04:39:39.644Z,14.65
2017-09-14T04:42:05.894Z,15.43
2017-09-14T04:44:32.109Z,15.99
2017-09-14T04:46:58.353Z,16.32
2017-09-14T04:49:24.595Z,16.72
2017-09-14T04:51:50.806Z,17.54
2017-09-14T04:54:17.047Z,18.53
2017-09-14T04:56:43.261Z,19.56
2017-09-14T04:59:09.489Z,20.26
2017-09-14T05:01:35.749Z,20.58
2017-09-14T05:04:01.929Z,21.05
2017-09-14T05:06:28.908Z,21.20
2017-09-14T05:08:55.159Z,21.97
2017-09-14T05:11:21.356Z,22.08
2017-09-14T05:13:47.582Z,22.81
2017-09-14T05:16:13.824Z,23.56
2017-09-14T05:18:40.039Z,24.34
2017-09-14T05:21:06.322Z,24.83
2017-09-14T05:23:32.502Z,24.95
2017-09-14T05:25:58.732Z,24.83
2017-09-14T05:28:24.955Z,23.27
2017-09-14T05:30:51.174Z,23.15
2017-09-14T05:33:17.403Z,22.96
2017-09-14T05:35:43.653Z,22.93
2017-09-14T05:38:09.934Z,23.39
2017-09-14T05:40:36.221Z,23.93
2017-09-14T05:43:02.428Z,24.00
2017-09-14T05:45:28.651Z,23.80
2017-09-14T05:47:54.893Z,23.87
2017-09-14T05:50:21.158Z,23.08
2017-09-14T05:52:47.478Z,22.71
2017-09-14T05:55:13.685Z,23.05
2017-09-14T05:57:39.927Z,23.82
2017-09-14T06:00:06.165Z,24.51
2017-09-14T06:02:32.381Z,23.71
2017-09-14T06:05:00.455Z,24.32
2017-09-14T06:07:26.725Z,24.88
2017-09-14T06:09:52.911Z,25.04
2017-09-14T06:12:19.141Z,24.54
2017-09-14T06:14:45.364Z,24.16
2017-09-14T06:17:11.601Z,24.39
2017-09-14T06:19:37.823Z,24.88
2017-09-14T06:22:04.046Z,25.28
2017-09-14T06:24:31.115Z,25.95
2017-09-14T06:26:57.283Z,26.02
2017-09-14T06:29:23.453Z,26.28
2017-09-14T06:31:49.697Z,25.76
2017-09-14T06:34:15.846Z,24.60
2017-09-14T06:36:42.044Z,24.47
2017-09-14T06:39:08.280Z,24.98
2017-09-14T06:41:34.510Z,24.89
2017-09-14T06:44:00.660Z,24.93
2017-09-14T06:46:26.863Z,25.19
2017-09-14T06:48:53.024Z,25.00
2017-09-14T06:51:19.217Z,25.57
2017-09-14T06:53:45.452Z,26.04
2017-09-14T06:56:11.676Z,26.87
2017-09-14T06:58:37.912Z,26.72
2017-09-14T07:01:04.140Z,26.44
2017-09-14T07:03:30.379Z,26.72
2017-09-14T07:05:56.605Z,26.31
2017-09-14T07:08:22.843Z,26.11
2017-09-14T07:10:49.041Z,26.72
2017-09-14T07:13:15.293Z,27.22
2017-09-14T07:15:41.507Z,28.19
2017-09-14T07:18:07.755Z,27.98
2017-09-14T07:20:33.991Z,28.78
2017-09-14T07:23:00.225Z,28.79
2017-09-14T07:25:26.436Z,28.55
2017-09-14T07:27:52.600Z,28.51
2017-09-14T07:30:18.751Z,28.71
2017-09-14T07:32:44.901Z,29.48
2017-09-14T07:35:11.058Z,30.02
2017-09-14T07:37:37.214Z,29.44
2017-09-14T07:40:03.373Z,30.56
2017-09-14T07:42:29.559Z,30.45
2017-09-14T07:44:55.732Z,30.95
2017-09-14T07:47:21.888Z,31.07
2017-09-14T07:49:48.088Z,31.71
2017-09-14T07:52:14.223Z,32.13
2017-09-14T07:54:40.356Z,32.86
2017-09-14T07:57:06.520Z,32.29
2017-09-14T07:59:32.683Z,32.08
2017-09-14T08:01:58.829Z,32.95
2017-09-14T08:04:24.983Z,32.27
2017-09-14T08:06:51.130Z,32.32
2017-09-14T08:09:17.267Z,32.76
2017-09-14T08:11:43.441Z,33.24
2017-09-14T08:14:09.592Z,32.66
2017-09-14T08:16:37.783Z,33.09
2017-09-14T08:19:03.933Z,32.89
2017-09-14T08:21:30.099Z,32.22
2017-09-14T08:23:56.259Z,31.76
2017-09-14T08:26:22.413Z,31.88
2017-09-14T08:28:48.570Z,32.92
2017-09-14T08:31:14.720Z,32.89
2017-09-14T08:33:40.892Z,32.94
2017-09-14T08:36:07.064Z,32.85
2017-09-14T08:38:33.224Z,33.19
2017-09-14T08:40:59.391Z,33.20
2017-09-14T08:43:25.561Z,33.07
2017-09-14T08:45:51.755Z,32.18
2017-09-14T08:48:17.904Z,32.12
2017-09-14T08:50:44.053Z,33.08
2017-09-14T08:53:10.210Z,33.12
2017-09-14T08:55:36.365Z,32.18
2017-09-14T08:58:02.525Z,31.89
2017-09-14T09:00:28.701Z,31.90
2017-09-14T09:02:54.858Z,32.29
2017-09-14T09:05:21.032Z,32.55
2017-09-14T09:07:47.190Z,33.18
2017-09-14T09:10:13.370Z,33.25
2017-09-14T09:12:39.524Z,33.54
2017-09-14T09:15:05.742Z,33.10
2017-09-14T09:17:31.979Z,33.85
2017-09-14T09:19:58.465Z,34.12
2017-09-14T09:22:24.629Z,33.78
2017-09-14T09:24:50.857Z,32.96
2017-09-14T09:27:17.098Z,32.52
2017-09-14T09:29:43.355Z,33.20
2017-09-14T09:32:09.598Z,33.71
2017-09-14T09:34:35.892Z,33.92
2017-09-14T09:37:02.096Z,34.33
2017-09-14T09:39:28.343Z,34.36
2017-09-14T09:41:54.691Z,33.89
2017-09-14T09:44:21.041Z,33.60
2017-09-14T09:46:47.653Z,34.04
2017-09-14T09:49:14.259Z,34.09
2017-09-14T09:51:40.627Z,34.42
2017-09-14T09:54:06.863Z,34.40
2017-09-14T09:56:33.200Z,34.29
2017-09-14T09:58:59.528Z,34.82
2017-09-14T10:01:25.756Z,34.83
2017-09-14T10:03:51.985Z,34.11
2017-09-14T10:06:18.322Z,33.86
2017-09-14T10:08:44.562Z,33.78
2017-09-14T10:11:10.803Z,33.60
2017-09-14T10:13:37.123Z,33.93
2017-09-14T10:16:03.618Z,34.10
2017-09-14T10:18:29.989Z,34.54
2017-09-14T10:20:56.198Z,33.96
2017-09-14T10:23:22.544Z,33.22
2017-09-14T10:25:49.403Z,33.32
2017-09-14T10:28:15.717Z,33.71
2017-09-14T10:30:41.971Z,34.19
2017-09-14T10:33:08.265Z,34.24
2017-09-14T10:35:34.615Z,33.97
2017-09-14T10:38:00.858Z,34.29
2017-09-14T10:40:27.091Z,34.40
2017-09-14T10:42:53.412Z,34.45
2017-09-14T10:45:19.637Z,34.08
2017-09-14T10:47:45.972Z,33.93
2017-09-14T10:50:12.300Z,33.64
2017-09-14T10:52:38.643Z,33.52
2017-09-14T10:55:04.966Z,34.21
2017-09-14T10:57:31.215Z,33.83
2017-09-14T10:59:58.237Z,33.08
2017-09-14T11:02:24.565Z,33.26
2017-09-14T11:04:50.797Z,33.58
2017-09-14T11:07:17.139Z,33.82
2017-09-14T11:09:43.466Z,33.73
2017-09-14T11:12:09.693Z,33.38
2017-09-14T11:14:37.467Z,33.86
2017-09-14T11:17:04.626Z,34.13
2017-09-14T11:19:31.040Z,34.01
2017-09-14T11:21:57.379Z,34.50
2017-09-14T11:24:23.779Z,34.85
2017-09-14T11:26:50.129Z,34.21
2017-09-14T11:29:16.483Z,33.99
2017-09-14T11:31:42.791Z,34.47
2017-09-14T11:34:09.034Z,34.96
2017-09-14T11:36:35.261Z,34.28
2017-09-14T11:39:01.479Z,34.41
2017-09-14T11:41:28.071Z,35.31
2017-09-14T11:43:54.368Z,35.67
2017-09-14T11:46:20.767Z,36.42
2017-09-14T11:48:46.954Z,36.64
2017-09-14T11:51:13.285Z,36.45
2017-09-14T11:53:40.202Z,36.34
2017-09-14T11:56:06.529Z,37.03
2017-09-14T11:58:33.195Z,37.21
2017-09-14T12:00:59.995Z,36.58
2017-09-14T12:13:11.701Z,37.34
2017-09-14T12:15:37.898Z,37.30
2017-09-14T12:18:04.229Z,37.81
2017-09-14T12:20:30.453Z,37.58
2017-09-14T12:22:56.806Z,37.20
2017-09-14T12:25:23.233Z,38.20
2017-09-14T12:27:49.466Z,38.92
2017-09-14T12:30:15.911Z,38.16
2017-09-14T12:32:42.659Z,38.63
2017-09-14T12:35:08.993Z,39.01
2017-09-14T12:37:36.424Z,39.00
2017-09-14T12:40:02.876Z,39.17
2017-09-14T12:42:29.216Z,39.11
2017-09-14T12:44:55.533Z,39.44
2017-09-14T12:47:21.868Z,39.62
2017-09-14T12:49:48.831Z,39.10
2017-09-14T12:52:15.156Z,38.42
2017-09-14T12:54:41.695Z,39.48
2017-09-14T12:57:08.422Z,39.76
2017-09-14T12:59:35.250Z,39.89
2017-09-14T13:02:01.489Z,39.03
2017-09-14T13:04:27.817Z,38.66
2017-09-14T13:06:54.064Z,38.31
2017-09-14T13:09:20.395Z,38.88
2017-09-14T13:11:47.136Z,39.05
2017-09-14T13:14:13.455Z,38.53
2017-09-14T13:16:39.793Z,38.13
2017-09-14T13:19:06.034Z,37.64
2017-09-14T13:21:33.379Z,38.02
2017-09-14T13:23:59.727Z,38.24
2017-09-14T13:26:26.664Z,38.11
2017-09-14T13:28:53.001Z,37.63
2017-09-14T13:31:19.229Z,38.08
2017-09-14T13:33:45.442Z,39.01
2017-09-14T13:36:11.774Z,38.99
2017-09-14T13:38:38.116Z,39.36
2017-09-14T13:41:04.362Z,38.55
2017-09-14T13:43:30.658Z,38.87
2017-09-14T13:45:57.437Z,39.85
2017-09-14T13:48:23.650Z,39.18
2017-09-14T13:50:49.872Z,38.38
2017-09-14T13:53:16.729Z,38.94
2017-09-14T13:55:42.945Z,39.09
2017-09-14T13:58:09.187Z,39.25
2017-09-14T14:00:35.415Z,38.48
2017-09-14T14:03:01.639Z,38.46
2017-09-14T14:05:27.975Z,38.55
2017-09-14T14:07:56.200Z,38.78
2017-09-14T14:10:22.691Z,39.09
2017-09-14T14:12:49.018Z,37.98
2017-09-14T14:15:15.246Z,37.65
2017-09-14T14:17:41.458Z,37.33
2017-09-14T14:20:07.702Z,36.90
2017-09-14T14:22:34.024Z,37.01
2017-09-14T14:25:00.681Z,37.99
2017-09-14T14:27:27.018Z,38.34
2017-09-14T14:29:53.442Z,37.87
2017-09-14T14:32:19.684Z,37.11
2017-09-14T14:34:45.907Z,37.60
2017-09-14T14:37:12.238Z,38.12
2017-09-14T14:39:38.577Z,37.85
2017-09-14T14:42:04.785Z,37.53
2017-09-14T14:44:31.018Z,37.93
2017-09-14T14:46:57.377Z,38.58
2017-09-14T14:49:23.708Z,38.79
2017-09-14T14:51:50.031Z,38.43
2017-09-14T14:54:16.380Z,38.48
2017-09-14T14:56:42.679Z,38.30
2017-09-14T14:59:08.900Z,37.43
2017-09-14T15:01:35.214Z,37.21
2017-09-14T15:04:01.684Z,36.68
2017-09-14T15:06:28.025Z,37.07
2017-09-14T15:08:54.748Z,36.73
2017-09-14T15:11:21.089Z,36.40
2017-09-14T15:13:47.455Z,35.93
2017-09-14T15:16:13.948Z,36.21
2017-09-14T15:18:40.282Z,36.15
2017-09-14T15:21:06.836Z,35.70
2017-09-14T15:23:33.166Z,36.22
2017-09-14T15:25:59.499Z,36.43
2017-09-14T15:28:25.720Z,36.07
2017-09-14T15:30:51.965Z,36.31
2017-09-14T15:33:18.321Z,36.81
2017-09-14T15:35:46.150Z,36.51
2017-09-14T15:38:12.466Z,35.33
2017-09-14T15:40:38.825Z,33.66
2017-09-14T15:43:05.059Z,31.81
2017-09-14T15:45:31.496Z,31.08
2017-09-14T15:47:57.843Z,30.40
2017-09-14T15:50:24.155Z,30.04
2017-09-14T15:52:50.595Z,29.67
2017-09-14T15:55:16.916Z,29.45
2017-09-14T15:57:43.159Z,29.44
2017-09-14T16:00:09.368Z,29.23
2017-09-14T16:02:35.863Z,28.88
2017-09-14T16:05:02.249Z,28.74
2017-09-14T16:07:28.793Z,28.72
2017-09-14T16:09:55.013Z,28.44
2017-09-14T16:12:21.464Z,28.38
2017-09-14T16:14:47.604Z,28.30
2017-09-14T16:17:13.863Z,28.03
2017-09-14T16:19:40.103Z,27.96
2017-09-14T16:22:06.536Z,27.67
2017-09-14T16:24:32.854Z,27.59
2017-09-14T16:26:59.252Z,27.52
2017-09-14T16:29:25.621Z,27.40
2017-09-14T16:31:51.864Z,27.31
2017-09-14T16:34:18.039Z,27.26
2017-09-14T16:36:44.569Z,27.16
2017-09-14T16:39:11.091Z,27.18
2017-09-14T16:41:37.396Z,27.03
2017-09-14T16:44:04.281Z,26.95
2017-09-14T16:46:31.327Z,26.93
2017-09-14T16:48:57.574Z,26.78
2017-09-14T16:51:23.790Z,26.80
2017-09-14T16:53:50.106Z,26.65
2017-09-14T16:56:16.453Z,26.57
2017-09-14T16:58:43.407Z,26.53
2017-09-14T17:01:09.825Z,26.50
2017-09-14T17:03:36.159Z,26.48
2017-09-14T17:06:02.514Z,26.34
2017-09-14T17:08:28.738Z,26.02
2017-09-14T17:10:55.045Z,25.87
2017-09-14T17:13:21.398Z,25.78
2017-09-14T17:15:47.739Z,25.47
2017-09-14T17:18:14.065Z,25.47
2017-09-14T17:20:40.430Z,25.35
2017-09-14T17:23:07.479Z,25.27
2017-09-14T17:25:33.697Z,25.17
2017-09-14T17:28:00.110Z,25.15
2017-09-14T17:30:26.443Z,25.17
2017-09-14T17:32:52.766Z,24.85
2017-09-14T17:35:19.823Z,24.74
2017-09-14T17:37:46.059Z,24.75
2017-09-14T17:40:12.784Z,24.66
2017-09-14T17:42:38.990Z,24.55
2017-09-14T17:45:05.348Z,24.32
2017-09-14T17:47:32.075Z,24.27
2017-09-14T17:49:58.416Z,24.34
2017-09-14T17:52:24.671Z,24.26
2017-09-14T17:54:51.704Z,24.12
2017-09-14T17:57:18.014Z,23.94
2017-09-14T17:59:45.119Z,23.92
2017-09-14T18:02:11.844Z,23.90
2017-09-14T18:04:38.166Z,23.87
2017-09-14T18:07:05.009Z,23.53
2017-09-14T18:09:31.335Z,23.47
2017-09-14T18:11:57.692Z,23.50
2017-09-14T18:14:23.991Z,23.50
2017-09-14T18:16:50.232Z,23.28
2017-09-14T18:19:16.552Z,23.26
2017-09-14T18:21:43.402Z,23.02
2017-09-14T18:24:09.825Z,22.97
2017-09-14T18:26:36.059Z,22.92
2017-09-14T18:29:02.298Z,22.99
2017-09-14T18:31:29.142Z,22.96
2017-09-14T18:33:55.379Z,22.83
2017-09-14T18:36:21.790Z,22.85
2017-09-14T18:38:48.370Z,22.74
2017-09-14T18:41:14.663Z,22.75
2017-09-14T18:43:40.891Z,22.74
2017-09-14T18:46:07.338Z,22.61
2017-09-14T18:48:33.666Z,22.54
2017-09-14T18:51:00.101Z,22.47
2017-09-14T18:53:26.442Z,22.41
2017-09-14T18:55:52.811Z,22.37
2017-09-14T18:58:19.705Z,22.27
2017-09-14T19:00:46.035Z,22.17
2017-09-14T19:03:12.373Z,22.08
2017-09-14T19:05:38.707Z,22.01
2017-09-14T19:08:04.944Z,22.02
2017-09-14T19:10:31.373Z,22.05
2017-09-14T19:12:58.319Z,22.06
2017-09-14T19:15:24.645Z,22.09
2017-09-14T19:17:50.972Z,21.99
2017-09-14T19:20:17.213Z,21.84
2017-09-14T19:22:43.441Z,21.74
2017-09-14T19:25:09.985Z,21.73
2017-09-14T19:27:36.296Z,21.71
2017-09-14T19:30:02.631Z,21.67
2017-09-14T19:32:28.976Z,21.67
2017-09-14T19:34:55.820Z,21.58
2017-09-14T19:37:22.051Z,21.57
2017-09-14T19:39:48.393Z,21.59
2017-09-14T19:42:14.723Z,21.42
2017-09-14T19:44:41.166Z,21.39
2017-09-14T19:47:08.434Z,21.41
2017-09-14T19:49:34.844Z,21.36
2017-09-14T19:52:01.888Z,21.25
2017-09-14T19:54:28.535Z,21.11
2017-09-14T19:56:54.964Z,21.00
2017-09-14T19:59:21.305Z,20.92
2017-09-14T20:01:47.628Z,20.84
2017-09-14T20:04:14.022Z,20.77
2017-09-14T20:06:40.396Z,20.76
2017-09-14T20:09:06.631Z,20.71
2017-09-14T20:11:33.361Z,20.69
2017-09-14T20:13:59.585Z,20.57
2017-09-14T20:16:25.779Z,20.49
2017-09-14T20:18:52.049Z,20.54
2017-09-14T20:21:18.205Z,20.51
2017-09-14T20:23:44.546Z,20.45
2017-09-14T20:26:10.852Z,20.42
2017-09-14T20:28:37.276Z,20.39
2017-09-14T20:31:03.626Z,20.28
2017-09-14T20:33:30.774Z,20.26
2017-09-14T20:35:57.056Z,20.34
2017-09-14T20:38:23.467Z,20.41
2017-09-14T20:40:50.605Z,20.36
2017-09-14T20:43:16.907Z,20.40
2017-09-14T20:45:43.247Z,20.29
2017-09-14T20:48:09.669Z,20.25
2017-09-14T20:50:35.994Z,20.21
2017-09-14T20:53:02.228Z,20.14
2017-09-14T20:55:28.671Z,20.16
2017-09-14T20:57:54.994Z,20.19
2017-09-14T21:00:21.318Z,20.36
2017-09-14T21:02:47.659Z,20.45
2017-09-14T21:05:14.371Z,20.52
2017-09-14T21:07:40.744Z,20.52
2017-09-14T21:10:07.066Z,20.60
2017-09-14T21:12:33.300Z,20.65
2017-09-14T21:14:59.612Z,20.83
2017-09-14T21:17:26.497Z,20.73
2017-09-14T21:19:53.108Z,20.64
2017-09-14T21:22:19.647Z,20.56
2017-09-14T21:24:46.301Z,20.46
2017-09-14T21:27:13.134Z,20.53
2017-09-14T21:29:39.465Z,20.81
2017-09-14T21:32:06.212Z,20.91
2017-09-14T21:34:32.457Z,20.95
2017-09-14T21:36:58.667Z,21.21
2017-09-14T21:39:24.983Z,21.41
2017-09-14T21:41:51.310Z,21.47
2017-09-14T21:44:18.269Z,21.63
2017-09-14T21:46:44.814Z,21.76
2017-09-14T21:49:11.156Z,21.75
2017-09-14T21:51:37.469Z,21.79
2017-09-14T21:54:03.715Z,21.80
2017-09-14T21:56:30.041Z,21.89
2017-09-14T21:58:56.399Z,21.93
2017-09-14T22:01:22.803Z,22.05
2017-09-14T22:03:49.146Z,22.19
2017-09-14T22:06:15.851Z,22.22
2017-09-14T22:08:42.252Z,22.45
2017-09-14T22:11:08.753Z,22.44
2017-09-14T22:13:35.079Z,22.43
2017-09-14T22:16:01.418Z,22.57
2017-09-14T22:18:28.058Z,22.60
2017-09-14T22:20:54.381Z,22.57
2017-09-14T22:23:20.685Z,22.64
2017-09-14T22:25:47.062Z,22.63
2017-09-14T22:28:13.388Z,22.79
2017-09-14T22:30:39.711Z,22.81
2017-09-14T22:33:06.043Z,22.85
2017-09-14T22:35:32.691Z,22.91
2017-09-14T22:37:59.844Z,22.83
2017-09-14T22:40:26.279Z,22.72
2017-09-14T22:42:52.600Z,22.83
2017-09-14T22:45:19.447Z,22.91
2017-09-14T22:47:45.786Z,22.88
2017-09-14T22:50:12.347Z,22.85
2017-09-14T22:52:38.747Z,22.76
2017-09-14T22:55:05.097Z,22.99
2017-09-14T22:57:31.724Z,23.16
2017-09-14T22:59:57.950Z,23.04
2017-09-14T23:02:24.285Z,23.03
2017-09-14T23:04:50.623Z,23.16
2017-09-14T23:07:16.853Z,23.09
2017-09-14T23:09:43.181Z,23.11
2017-09-14T23:12:09.509Z,23.09
2017-09-14T23:14:36.050Z,22.96
2017-09-14T23:17:02.367Z,22.89
2017-09-14T23:19:28.822Z,22.91
2017-09-14T23:21:55.337Z,22.74
2017-09-14T23:24:21.689Z,22.66
2017-09-14T23:26:48.149Z,22.65
2017-09-14T23:29:14.465Z,22.83
2017-09-14T23:31:40.682Z,22.96
2017-09-14T23:34:07.009Z,22.92
2017-09-14T23:36:33.451Z,22.82
2017-09-14T23:38:59.676Z,22.84
2017-09-14T23:41:26.012Z,22.89
2017-09-14T23:43:52.324Z,22.77
2017-09-14T23:46:18.564Z,22.76
2017-09-14T23:48:44.990Z,22.70
2017-09-14T23:51:11.313Z,22.55
2017-09-14T23:53:37.868Z,22.53
2017-09-14T23:56:04.193Z,22.47
2017-09-14T23:58:30.743Z,22.42
